Time;durP1;ratioP1;P1;durP2;ratioP2;P2;SDS_P1;SDS_P2;PMS_P1;PMS_P2;Temp;Humidity;BMP_temperature;BMP_pressure;BME280_temperature;BME280_humidity;BME280_pressure;Samples;Min_cycle;Max_cycle;Signal;HPM_P1;HPM_P2
2022/03/13 00:00:38;;;;;;;20.08;13.40;;;7.70;99.90;;;;;;5052892;28;20041;-46
2022/03/13 00:03:12;;;;;;;19.15;13.13;;;7.70;99.90;;;;;;5052614;28;20048;-46
2022/03/13 00:05:41;;;;;;;20.70;13.52;;;7.70;99.90;;;;;;5054221;28;20033;-45
2022/03/13 00:08:31;;;;;;;20.33;12.85;;;7.70;99.90;;;;;;5052837;28;20036;-46
2022/03/13 00:11:07;;;;;;;20.55;13.32;;;7.60;99.90;;;;;;5052627;28;20040;-45
2022/03/13 00:13:41;;;;;;;20.17;13.48;;;7.60;99.90;;;;;;5052488;28;20048;-46
2022/03/13 00:16:08;;;;;;;21.30;12.75;;;7.60;99.90;;;;;;5052450;28;20045;-48
2022/03/13 00:18:46;;;;;;;19.23;13.13;;;7.50;99.90;;;;;;5052747;28;20045;-48
2022/03/13 00:21:14;;;;;;;21.10;13.23;;;7.50;99.90;;;;;;5051621;28;20052;-48
2022/03/13 00:23:41;;;;;;;20.60;13.13;;;7.50;99.90;;;;;;5051163;28;20131;-47
2022/03/13 00:26:07;;;;;;;20.13;13.55;;;7.50;99.90;;;;;;5052430;28;20048;-46
2022/03/13 00:28:32;;;;;;;19.17;13.32;;;7.50;99.90;;;;;;5052257;28;20094;-46
2022/03/13 00:30:58;;;;;;;17.23;12.35;;;7.50;99.90;;;;;;5052274;28;20048;-50
2022/03/13 00:33:25;;;;;;;21.30;13.35;;;7.40;99.90;;;;;;5052454;28;20041;-47
2022/03/13 00:35:51;;;;;;;18.98;12.88;;;7.40;99.90;;;;;;5051245;28;20041;-46
2022/03/13 00:38:19;;;;;;;21.17;13.45;;;7.50;99.90;;;;;;5052293;28;20041;-45
2022/03/13 00:40:51;;;;;;;23.83;14.10;;;7.40;99.90;;;;;;5052150;28;20123;-46
2022/03/13 00:43:22;;;;;;;21.17;13.70;;;7.50;99.90;;;;;;5050741;28;20057;-47
2022/03/13 00:45:49;;;;;;;23.25;14.05;;;7.40;99.90;;;;;;5052141;28;20048;-45
2022/03/13 00:48:15;;;;;;;20.52;13.70;;;7.40;99.90;;;;;;5052093;28;20037;-46
2022/03/13 00:50:40;;;;;;;20.65;13.95;;;7.40;99.90;;;;;;5052171;28;20095;-46
2022/03/13 00:53:06;;;;;;;22.17;12.93;;;7.40;99.90;;;;;;5052036;28;20049;-46
2022/03/13 00:55:33;;;;;;;19.40;13.02;;;7.40;99.90;;;;;;5052203;28;20537;-46
2022/03/13 00:57:59;;;;;;;22.27;13.90;;;7.40;99.90;;;;;;5052177;28;20036;-46
2022/03/13 01:00:25;;;;;;;22.20;14.52;;;7.50;99.90;;;;;;5051921;28;20485;-45
2022/03/13 01:02:51;;;;;;;20.13;13.60;;;7.40;99.90;;;;;;5052126;28;20034;-46
2022/03/13 01:05:23;;;;;;;20.67;13.23;;;7.50;99.90;;;;;;5054792;28;20044;-45
2022/03/13 01:07:50;;;;;;;20.67;13.75;;;7.50;99.90;;;;;;5051940;28;20099;-45
2022/03/13 01:10:16;;;;;;;20.00;13.40;;;7.60;99.90;;;;;;5052081;28;20424;-46
2022/03/13 01:12:42;;;;;;;18.92;12.63;;;7.50;99.90;;;;;;5052054;28;20072;-48
2022/03/13 01:15:09;;;;;;;20.58;13.73;;;7.60;99.90;;;;;;5051888;28;20120;-46
2022/03/13 01:17:34;;;;;;;19.17;13.07;;;7.50;99.90;;;;;;5052012;28;20112;-49
2022/03/13 01:20:02;;;;;;;20.20;13.77;;;7.50;99.90;;;;;;5051808;28;20513;-46
2022/03/13 01:22:28;;;;;;;21.20;13.68;;;7.60;99.90;;;;;;5051984;28;20117;-47
2022/03/13 01:24:54;;;;;;;21.88;13.50;;;7.60;99.90;;;;;;5051916;28;20041;-48
2022/03/13 01:27:20;;;;;;;21.08;14.05;;;7.60;99.90;;;;;;5051451;28;20056;-50
2022/03/13 01:29:47;;;;;;;21.52;13.45;;;7.60;99.90;;;;;;5051609;28;20490;-45
2022/03/13 01:32:13;;;;;;;24.00;13.63;;;7.60;99.90;;;;;;5053678;28;20052;-45
2022/03/13 01:34:50;;;;;;;21.80;13.68;;;7.50;99.90;;;;;;5055576;28;20079;-45
2022/03/13 01:37:16;;;;;;;23.10;13.82;;;7.50;99.90;;;;;;5055660;28;20060;-45
2022/03/13 01:39:42;;;;;;;19.35;13.43;;;7.50;99.90;;;;;;5055612;28;20438;-45
2022/03/13 01:42:08;;;;;;;20.80;14.02;;;7.40;99.90;;;;;;5055166;28;20500;-45
2022/03/13 01:44:34;;;;;;;20.70;13.77;;;7.50;99.90;;;;;;5055448;28;20069;-45
2022/03/13 01:47:03;;;;;;;21.63;14.05;;;7.50;99.90;;;;;;5055191;28;20087;-47
2022/03/13 01:49:29;;;;;;;19.85;13.63;;;7.50;99.90;;;;;;5053987;28;20857;-45
2022/03/13 01:51:55;;;;;;;18.98;12.45;;;7.50;99.90;;;;;;5055074;28;20040;-46
2022/03/13 01:54:20;;;;;;;18.60;13.05;;;7.50;99.90;;;;;;5055419;28;20397;-45
2022/03/13 01:56:47;;;;;;;19.85;13.43;;;7.50;99.90;;;;;;5055335;28;20041;-47
2022/03/13 01:59:14;;;;;;;24.40;13.80;;;7.50;99.90;;;;;;5055431;28;20501;-46
2022/03/13 02:01:42;;;;;;;21.83;14.52;;;7.40;99.90;;;;;;5055003;28;20428;-46
2022/03/13 02:04:09;;;;;;;19.90;14.32;;;7.50;99.90;;;;;;5057734;28;20074;-45
2022/03/13 02:06:35;;;;;;;22.05;14.38;;;7.40;99.90;;;;;;5054933;28;20126;-46
2022/03/13 02:09:05;;;;;;;23.40;14.73;;;7.40;99.90;;;;;;5053935;28;20041;-45
2022/03/13 02:11:41;;;;;;;20.77;13.93;;;7.40;99.90;;;;;;5054769;28;20482;-47
2022/03/13 02:14:10;;;;;;;21.45;15.02;;;7.30;99.90;;;;;;5054980;28;20037;-45
2022/03/13 02:16:36;;;;;;;22.40;14.88;;;7.30;99.90;;;;;;5054875;28;20037;-45
2022/03/13 02:19:02;;;;;;;22.42;14.50;;;7.30;99.90;;;;;;5054654;28;20052;-45
2022/03/13 02:21:31;;;;;;;21.23;14.57;;;7.30;99.90;;;;;;5054472;28;20040;-45
2022/03/13 02:24:00;;;;;;;21.08;14.65;;;7.30;99.90;;;;;;5054397;28;20048;-46
2022/03/13 02:26:26;;;;;;;21.73;14.02;;;7.20;99.90;;;;;;5054526;28;20049;-45
2022/03/13 02:28:54;;;;;;;20.63;14.40;;;7.20;99.90;;;;;;5054395;28;20412;-46
2022/03/13 02:31:32;;;;;;;20.35;14.23;;;7.20;99.90;;;;;;5054432;28;20029;-46
2022/03/13 02:33:58;;;;;;;23.23;14.23;;;7.20;99.90;;;;;;5054658;28;20051;-45
2022/03/13 02:36:36;;;;;;;22.02;14.63;;;7.10;99.90;;;;;;5054641;28;20040;-45
2022/03/13 02:39:04;;;;;;;21.90;14.48;;;7.20;99.90;;;;;;5054450;28;20041;-46
2022/03/13 02:41:30;;;;;;;22.33;14.00;;;7.10;99.90;;;;;;5053153;28;20102;-46
2022/03/13 02:43:56;;;;;;;22.95;14.90;;;7.20;99.90;;;;;;5053337;28;20044;-45
2022/03/13 02:46:39;;;;;;;21.15;14.07;;;7.10;99.90;;;;;;5054091;28;20120;-46
2022/03/13 02:49:05;;;;;;;22.17;13.98;;;7.10;99.90;;;;;;5054438;28;20389;-47
2022/03/13 02:51:31;;;;;;;21.65;14.27;;;7.10;99.90;;;;;;5054333;28;20037;-47
2022/03/13 02:53:56;;;;;;;22.38;15.27;;;7.10;99.90;;;;;;5054285;28;20466;-47
2022/03/13 02:56:22;;;;;;;22.48;14.27;;;7.10;99.90;;;;;;5052748;28;20144;-46
2022/03/13 02:58:48;;;;;;;20.27;14.57;;;7.10;99.90;;;;;;5053947;28;20200;-46
2022/03/13 03:01:14;;;;;;;21.40;14.20;;;7.10;99.90;;;;;;5054157;28;20041;-45
2022/03/13 03:03:39;;;;;;;22.08;14.82;;;7.10;99.90;;;;;;5055445;28;20049;-46
2022/03/13 03:06:05;;;;;;;23.33;15.15;;;7.10;99.90;;;;;;5052935;28;20048;-46
2022/03/13 03:08:31;;;;;;;23.02;14.88;;;7.10;99.90;;;;;;5053890;28;20061;-47
2022/03/13 03:10:56;;;;;;;21.38;14.55;;;7.10;99.90;;;;;;5053704;28;20037;-45
2022/03/13 03:13:22;;;;;;;22.73;14.88;;;7.10;99.90;;;;;;5053658;28;20036;-47
2022/03/13 03:15:48;;;;;;;23.10;14.75;;;7.10;99.90;;;;;;5053837;28;20103;-45
2022/03/13 03:18:13;;;;;;;22.92;14.38;;;7.10;99.90;;;;;;5053790;28;20045;-45
2022/03/13 03:20:39;;;;;;;24.25;15.18;;;7.10;99.90;;;;;;5052292;28;20045;-46
2022/03/13 03:23:06;;;;;;;24.02;14.60;;;7.20;99.90;;;;;;5053481;28;20084;-46
2022/03/13 03:25:31;;;;;;;21.02;14.07;;;7.20;99.90;;;;;;5053450;28;20041;-45
2022/03/13 03:27:59;;;;;;;23.60;14.50;;;7.20;99.90;;;;;;5053244;28;20063;-46
2022/03/13 03:30:27;;;;;;;22.75;15.18;;;7.20;99.90;;;;;;5053538;28;20044;-47
2022/03/13 03:32:53;;;;;;;21.42;15.00;;;7.20;99.90;;;;;;5053353;28;20040;-45
2022/03/13 03:35:22;;;;;;;23.65;15.25;;;7.30;99.90;;;;;;5052234;28;20505;-45
2022/03/13 03:37:49;;;;;;;22.02;14.45;;;7.30;99.90;;;;;;5053164;28;20043;-45
2022/03/13 03:40:15;;;;;;;26.73;15.63;;;7.30;99.90;;;;;;5053130;28;20033;-46
2022/03/13 03:42:42;;;;;;;23.63;15.63;;;7.30;99.90;;;;;;5053014;28;20048;-45
2022/03/13 03:45:08;;;;;;;22.45;15.63;;;7.20;99.90;;;;;;5053272;28;20043;-45
2022/03/13 03:47:34;;;;;;;22.40;14.93;;;7.30;99.90;;;;;;5051918;28;20033;-45
2022/03/13 03:50:00;;;;;;;23.20;15.48;;;7.30;99.90;;;;;;5051580;28;20075;-47
2022/03/13 03:52:26;;;;;;;23.35;15.70;;;7.30;99.90;;;;;;5053018;28;20091;-46
2022/03/13 03:54:52;;;;;;;22.58;14.73;;;7.30;99.90;;;;;;5052989;28;20041;-46
2022/03/13 03:57:19;;;;;;;27.05;15.13;;;7.30;99.90;;;;;;5052978;28;20048;-45
2022/03/13 03:59:45;;;;;;;23.70;15.77;;;7.40;99.90;;;;;;5051821;28;20039;-45
2022/03/13 04:02:11;;;;;;;21.83;14.88;;;7.20;99.90;;;;;;5052614;28;20049;-45
2022/03/13 04:04:36;;;;;;;25.70;16.00;;;7.30;99.90;;;;;;5055442;28;20433;-49
2022/03/13 04:07:02;;;;;;;21.33;15.07;;;7.20;99.90;;;;;;5052683;28;20132;-46
2022/03/13 04:09:28;;;;;;;23.08;15.60;;;7.20;99.90;;;;;;5052543;28;20120;-47
2022/03/13 04:11:54;;;;;;;25.15;15.52;;;7.10;99.90;;;;;;5052849;28;20075;-48
2022/03/13 04:14:21;;;;;;;24.65;16.45;;;7.10;99.90;;;;;;5052802;28;20390;-48
2022/03/13 04:16:47;;;;;;;24.88;15.98;;;7.10;99.90;;;;;;5051409;28;20036;-46
2022/03/13 04:19:13;;;;;;;24.13;16.27;;;7.00;99.90;;;;;;5051174;28;20520;-47
2022/03/13 04:21:41;;;;;;;23.50;16.00;;;7.00;99.90;;;;;;5052367;28;20061;-47
2022/03/13 04:24:11;;;;;;;24.33;15.95;;;6.90;99.90;;;;;;5052328;28;20401;-47
2022/03/13 04:26:42;;;;;;;23.05;15.40;;;6.90;99.90;;;;;;5052349;28;20115;-44
2022/03/13 04:29:09;;;;;;;25.15;15.98;;;6.80;99.90;;;;;;5052433;28;20048;-45
2022/03/13 04:31:37;;;;;;;23.15;15.98;;;6.70;99.90;;;;;;5052324;28;20037;-46
2022/03/13 04:34:04;;;;;;;22.17;15.75;;;6.70;99.90;;;;;;5052373;28;20106;-45
2022/03/13 04:36:32;;;;;;;23.30;15.60;;;6.60;99.90;;;;;;5052439;28;20064;-45
2022/03/13 04:38:59;;;;;;;25.15;16.10;;;6.60;99.90;;;;;;5052454;28;20049;-46
2022/03/13 04:41:25;;;;;;;23.48;14.93;;;6.50;99.90;;;;;;5052134;28;20041;-46
2022/03/13 04:43:52;;;;;;;23.75;15.23;;;6.40;99.90;;;;;;5052033;28;20037;-46
2022/03/13 04:46:18;;;;;;;23.85;15.43;;;6.50;99.90;;;;;;5052169;28;20078;-45
2022/03/13 04:48:44;;;;;;;23.02;15.35;;;6.40;99.90;;;;;;5052122;28;20144;-45
2022/03/13 04:51:09;;;;;;;23.23;15.45;;;6.40;99.90;;;;;;5051904;28;20041;-46
2022/03/13 04:53:36;;;;;;;22.35;15.63;;;6.40;99.90;;;;;;5052213;28;20040;-45
2022/03/13 04:56:02;;;;;;;26.52;17.00;;;6.40;99.90;;;;;;5052250;28;20045;-45
2022/03/13 04:58:28;;;;;;;22.05;15.95;;;6.40;99.90;;;;;;5052341;28;20413;-45
2022/03/13 05:00:53;;;;;;;26.52;16.33;;;6.40;99.90;;;;;;5052002;28;20041;-45
2022/03/13 05:03:19;;;;;;;23.42;16.58;;;6.40;99.90;;;;;;5051901;28;20045;-45
2022/03/13 05:05:45;;;;;;;24.33;15.65;;;6.40;99.90;;;;;;5054630;28;20525;-46
2022/03/13 05:08:15;;;;;;;23.25;15.75;;;6.40;99.90;;;;;;5054229;28;20485;-47
2022/03/13 05:10:43;;;;;;;24.55;15.57;;;6.40;99.90;;;;;;5056094;28;20052;-46
2022/03/13 05:13:14;;;;;;;23.65;16.17;;;6.40;99.90;;;;;;5055924;28;20137;-49
2022/03/13 05:15:41;;;;;;;24.98;17.20;;;6.40;99.90;;;;;;5055931;28;20116;-47
2022/03/13 05:18:07;;;;;;;24.27;16.27;;;6.40;99.90;;;;;;5055688;28;20045;-46
2022/03/13 05:20:34;;;;;;;24.88;15.45;;;6.40;99.90;;;;;;5055748;28;20041;-46
2022/03/13 05:23:04;;;;;;;23.95;16.15;;;6.40;99.90;;;;;;5055937;28;20045;-45
2022/03/13 05:25:35;;;;;;;24.27;15.98;;;6.40;99.90;;;;;;5055937;28;20045;-46
2022/03/13 05:28:01;;;;;;;24.00;15.90;;;6.40;99.90;;;;;;5055453;28;20063;-45
2022/03/13 05:30:27;;;;;;;26.00;15.68;;;6.30;99.90;;;;;;5055803;28;20053;-46
2022/03/13 05:32:54;;;;;;;25.10;15.65;;;6.30;99.90;;;;;;5055446;28;20121;-45
2022/03/13 05:35:19;;;;;;;23.40;14.50;;;6.30;99.90;;;;;;5055502;28;20486;-48
2022/03/13 05:37:45;;;;;;;25.08;16.38;;;6.30;99.90;;;;;;5055744;28;20052;-45
2022/03/13 05:40:13;;;;;;;24.02;15.55;;;6.30;99.90;;;;;;5054478;28;20044;-46
2022/03/13 05:42:55;;;;;;;24.40;15.10;;;6.30;99.90;;;;;;5055324;28;20116;-46
2022/03/13 05:45:22;;;;;;;24.83;16.42;;;6.30;99.90;;;;;;5054174;28;20055;-48
2022/03/13 05:47:53;;;;;;;23.35;15.00;;;6.30;99.90;;;;;;5055317;28;20470;-46
2022/03/13 05:50:20;;;;;;;24.38;16.98;;;6.30;99.90;;;;;;5055375;28;20088;-46
2022/03/13 05:52:47;;;;;;;21.58;15.27;;;6.20;99.90;;;;;;5055332;28;20041;-46
2022/03/13 05:55:14;;;;;;;23.67;14.55;;;6.20;99.90;;;;;;5054107;28;20144;-45
2022/03/13 05:57:40;;;;;;;23.55;14.77;;;6.10;99.90;;;;;;5055042;28;20044;-45
2022/03/13 06:00:09;;;;;;;25.27;14.48;;;6.20;99.90;;;;;;5055003;28;20044;-45
2022/03/13 06:02:38;;;;;;;22.45;14.02;;;6.10;99.90;;;;;;5053689;28;20094;-45
2022/03/13 06:05:06;;;;;;;23.15;15.32;;;6.10;99.90;;;;;;5057662;28;20056;-45
2022/03/13 06:07:32;;;;;;;23.35;15.07;;;6.10;99.90;;;;;;5055114;28;20083;-47
2022/03/13 06:10:02;;;;;;;22.40;14.95;;;6.20;99.90;;;;;;5053624;28;20073;-46
2022/03/13 06:12:31;;;;;;;21.23;14.77;;;6.20;99.90;;;;;;5053518;28;20098;-47
2022/03/13 06:14:58;;;;;;;22.50;14.50;;;6.20;99.90;;;;;;5054991;28;20041;-46
2022/03/13 06:17:25;;;;;;;22.08;15.13;;;6.10;99.90;;;;;;5054724;28;20045;-46
2022/03/13 06:19:51;;;;;;;27.17;14.75;;;6.20;99.90;;;;;;5053963;28;20057;-45
2022/03/13 06:22:21;;;;;;;22.60;14.77;;;6.20;99.90;;;;;;5053288;28;20045;-45
2022/03/13 06:24:47;;;;;;;21.05;14.05;;;6.20;99.90;;;;;;5054764;28;20076;-45
2022/03/13 06:27:13;;;;;;;20.85;13.82;;;6.20;99.90;;;;;;5054391;28;20154;-46
2022/03/13 06:29:40;;;;;;;20.30;13.77;;;6.20;99.90;;;;;;5054457;28;20493;-45
2022/03/13 06:32:06;;;;;;;20.80;13.90;;;6.20;99.90;;;;;;5054416;28;20477;-46
2022/03/13 06:34:32;;;;;;;20.52;14.23;;;6.20;99.90;;;;;;5053355;28;20080;-46
2022/03/13 06:36:58;;;;;;;24.02;15.40;;;6.20;99.90;;;;;;5054691;28;20414;-47
2022/03/13 06:39:23;;;;;;;22.17;13.98;;;6.20;99.90;;;;;;5054569;28;20497;-46
2022/03/13 06:41:50;;;;;;;19.58;13.70;;;6.20;99.90;;;;;;5054578;28;20040;-48
2022/03/13 06:44:16;;;;;;;19.75;13.73;;;6.20;99.90;;;;;;5054332;28;20117;-46
2022/03/13 06:46:41;;;;;;;21.52;14.70;;;6.20;99.90;;;;;;5054366;28;20426;-48
2022/03/13 06:49:07;;;;;;;21.50;14.32;;;6.20;99.90;;;;;;5052810;28;20037;-46
2022/03/13 06:51:33;;;;;;;22.42;14.43;;;6.20;99.90;;;;;;5054186;28;20133;-46
2022/03/13 06:53:59;;;;;;;21.45;13.23;;;6.20;99.90;;;;;;5054039;28;20142;-46
2022/03/13 06:56:25;;;;;;;19.50;13.50;;;6.20;99.90;;;;;;5054119;28;20037;-45
2022/03/13 06:58:52;;;;;;;28.83;13.90;;;6.30;99.90;;;;;;5054087;28;20047;-46
2022/03/13 07:01:18;;;;;;;25.27;13.18;;;6.30;99.90;;;;;;5053929;28;20040;-48
2022/03/13 07:03:43;;;;;;;19.58;13.13;;;6.30;99.90;;;;;;5056651;28;20424;-46
2022/03/13 07:06:10;;;;;;;20.83;13.60;;;6.30;99.90;;;;;;5053974;28;20048;-46
2022/03/13 07:08:35;;;;;;;20.35;13.43;;;6.40;99.90;;;;;;5053666;28;20476;-45
2022/03/13 07:11:02;;;;;;;22.75;14.07;;;6.40;99.90;;;;;;5052602;28;20098;-45
2022/03/13 07:13:32;;;;;;;20.45;13.43;;;6.40;99.90;;;;;;5053600;28;20619;-45
2022/03/13 07:16:03;;;;;;;21.73;14.55;;;6.40;99.90;;;;;;5053732;28;20049;-46
2022/03/13 07:18:32;;;;;;;22.10;13.68;;;6.50;99.90;;;;;;5053872;28;20444;-45
2022/03/13 07:20:58;;;;;;;20.35;13.23;;;6.50;99.90;;;;;;5053444;28;20098;-47
2022/03/13 07:23:24;;;;;;;19.98;13.00;;;6.60;99.90;;;;;;5053471;28;20033;-46
2022/03/13 07:25:51;;;;;;;20.23;13.55;;;6.60;99.90;;;;;;5053528;28;20025;-47
2022/03/13 07:28:17;;;;;;;19.30;12.57;;;6.70;99.90;;;;;;5053202;28;20045;-46
2022/03/13 07:30:43;;;;;;;19.65;13.18;;;6.70;99.90;;;;;;5052353;28;20040;-48
2022/03/13 07:33:10;;;;;;;21.52;12.80;;;6.90;99.90;;;;;;5052568;28;20427;-47
2022/03/13 07:35:36;;;;;;;19.58;13.15;;;6.90;99.90;;;;;;5052671;28;20370;-47
2022/03/13 07:38:03;;;;;;;19.15;13.05;;;7.00;99.90;;;;;;5052122;28;20090;-46
2022/03/13 07:40:29;;;;;;;20.98;13.20;;;7.00;99.90;;;;;;5052198;28;20045;-45
2022/03/13 07:42:55;;;;;;;19.33;12.70;;;7.00;99.90;;;;;;5052127;28;20037;-47
2022/03/13 07:45:21;;;;;;;20.52;12.93;;;7.10;99.90;;;;;;5051601;28;20124;-47
2022/03/13 07:47:46;;;;;;;21.20;13.57;;;7.10;99.90;;;;;;5051488;28;20358;-48
2022/03/13 07:50:12;;;;;;;21.92;12.68;;;7.20;99.90;;;;;;5052225;28;20043;-47
2022/03/13 07:52:38;;;;;;;19.48;12.80;;;7.20;99.90;;;;;;5051993;28;20155;-46
2022/03/13 07:55:04;;;;;;;20.23;12.55;;;7.20;99.90;;;;;;5051847;28;20091;-47
2022/03/13 07:57:30;;;;;;;18.88;12.48;;;7.20;99.90;;;;;;5052215;28;20044;-49
2022/03/13 07:59:56;;;;;;;19.48;13.05;;;7.20;99.90;;;;;;5051911;28;20098;-46
2022/03/13 08:02:22;;;;;;;20.90;12.48;;;7.30;99.90;;;;;;5051861;28;20080;-48
2022/03/13 08:04:48;;;;;;;18.35;11.82;;;7.20;99.90;;;;;;5054844;28;20045;-46
2022/03/13 08:07:13;;;;;;;20.27;12.80;;;7.20;99.90;;;;;;5051940;28;20045;-46
2022/03/13 08:09:39;;;;;;;19.75;12.43;;;7.30;99.90;;;;;;5051938;28;20072;-47
2022/03/13 08:12:06;;;;;;;21.02;13.23;;;7.30;99.90;;;;;;5052131;28;20719;-47
2022/03/13 08:14:32;;;;;;;21.20;12.15;;;7.20;99.90;;;;;;5052011;28;20373;-48
2022/03/13 08:16:57;;;;;;;19.13;12.35;;;7.30;99.90;;;;;;5051713;28;20045;-47
2022/03/13 08:19:23;;;;;;;20.13;13.07;;;7.40;99.90;;;;;;5051584;28;20044;-46
2022/03/13 08:21:49;;;;;;;18.42;12.82;;;7.30;99.90;;;;;;5051782;28;20072;-47
2022/03/13 08:24:17;;;;;;;19.67;12.93;;;7.40;99.90;;;;;;5051395;28;20079;-45
2022/03/13 08:26:43;;;;;;;18.73;11.75;;;7.40;99.90;;;;;;5050089;28;20106;-46
2022/03/13 08:29:10;;;;;;;20.27;12.07;;;7.50;99.90;;;;;;5051583;28;20083;-47
2022/03/13 08:31:37;;;;;;;19.92;11.70;;;7.50;99.90;;;;;;5051598;28;20485;-49
2022/03/13 08:34:07;;;;;;;18.65;12.35;;;7.60;99.90;;;;;;5051504;28;20049;-47
2022/03/13 08:36:37;;;;;;;19.27;12.48;;;7.60;99.90;;;;;;5051659;28;20048;-50
2022/03/13 08:39:03;;;;;;;18.88;11.82;;;7.60;99.90;;;;;;5051599;28;20049;-51
2022/03/13 08:41:29;;;;;;;19.67;12.63;;;7.70;99.90;;;;;;5050273;28;20036;-48
2022/03/13 08:43:54;;;;;;;19.95;12.82;;;7.70;99.90;;;;;;5051298;28;20554;-47
2022/03/13 08:46:20;;;;;;;19.50;12.30;;;7.80;99.90;;;;;;5051408;28;20041;-46
2022/03/13 08:48:46;;;;;;;20.98;12.68;;;8.00;99.90;;;;;;5051587;28;20037;-45
2022/03/13 08:51:13;;;;;;;19.13;12.52;;;8.00;99.90;;;;;;5051676;28;20095;-45
2022/03/13 08:53:40;;;;;;;17.85;12.38;;;8.20;99.90;;;;;;5051484;28;20107;-46
2022/03/13 08:56:06;;;;;;;19.05;12.38;;;8.30;99.90;;;;;;5051241;28;20041;-46
2022/03/13 08:58:32;;;;;;;19.02;12.68;;;8.40;99.90;;;;;;5051341;28;20123;-46
2022/03/13 09:00:57;;;;;;;18.63;12.07;;;8.50;99.90;;;;;;5051341;28;20186;-46
2022/03/13 09:03:26;;;;;;;17.77;11.40;;;8.70;99.90;;;;;;5051408;28;20120;-46
2022/03/13 09:05:52;;;;;;;19.10;13.18;;;9.00;99.90;;;;;;5053419;28;20108;-46
2022/03/13 09:08:17;;;;;;;18.05;12.15;;;9.20;99.90;;;;;;5051480;28;20052;-46
2022/03/13 09:10:43;;;;;;;18.90;12.15;;;9.40;99.90;;;;;;5049950;28;20489;-47
2022/03/13 09:13:09;;;;;;;18.80;12.10;;;9.50;99.90;;;;;;5051382;28;20045;-46
2022/03/13 09:15:35;;;;;;;19.80;12.57;;;9.70;99.90;;;;;;5051201;28;20045;-46
2022/03/13 09:18:02;;;;;;;18.35;11.80;;;9.70;99.90;;;;;;5049741;28;20044;-46
2022/03/13 09:20:28;;;;;;;16.67;11.65;;;9.80;99.90;;;;;;5050530;28;20116;-46
2022/03/13 09:22:55;;;;;;;20.52;11.30;;;9.80;99.90;;;;;;5050746;28;20045;-46
2022/03/13 09:25:21;;;;;;;18.30;12.20;;;9.90;99.90;;;;;;5051028;28;20051;-47
2022/03/13 09:27:48;;;;;;;18.70;11.75;;;9.90;99.90;;;;;;5050727;28;20053;-46
2022/03/13 09:30:14;;;;;;;19.88;11.68;;;10.00;99.90;;;;;;5050840;28;20079;-45
2022/03/13 09:32:41;;;;;;;19.40;12.20;;;10.00;99.90;;;;;;5050766;28;20045;-48
2022/03/13 09:35:07;;;;;;;18.48;11.82;;;10.00;99.90;;;;;;5051044;28;20441;-46
2022/03/13 09:37:33;;;;;;;17.92;11.65;;;10.10;99.90;;;;;;5049418;28;20053;-46
2022/03/13 09:39:58;;;;;;;19.70;12.27;;;10.10;99.90;;;;;;5050892;28;20484;-46
2022/03/13 09:42:24;;;;;;;17.75;11.35;;;10.20;99.90;;;;;;5050959;28;20056;-46
2022/03/13 09:44:50;;;;;;;19.42;12.50;;;10.20;99.90;;;;;;5050949;28;20033;-47
2022/03/13 09:47:16;;;;;;;18.42;11.93;;;10.30;99.90;;;;;;5051002;28;20129;-47
2022/03/13 09:49:42;;;;;;;17.92;11.95;;;10.30;99.90;;;;;;5050940;28;20037;-49
2022/03/13 09:52:09;;;;;;;16.65;10.93;;;10.40;99.90;;;;;;5050389;28;20048;-46
2022/03/13 09:54:35;;;;;;;19.20;11.00;;;10.30;99.90;;;;;;5054105;28;20053;-49
2022/03/13 09:57:05;;;;;;;21.70;12.23;;;10.40;99.90;;;;;;5054259;28;20115;-48
2022/03/13 09:59:31;;;;;;;18.23;11.68;;;10.50;99.90;;;;;;5054020;28;20647;-47
2022/03/13 10:01:57;;;;;;;19.08;11.95;;;10.50;99.90;;;;;;5054398;28;20052;-47
2022/03/13 10:04:23;;;;;;;17.25;11.88;;;10.60;99.90;;;;;;5056896;28;20044;-48
2022/03/13 10:07:08;;;;;;;20.40;12.18;;;10.50;99.90;;;;;;5054441;28;20481;-48
2022/03/13 10:09:35;;;;;;;18.80;11.15;;;10.60;99.90;;;;;;5053915;28;20116;-48
2022/03/13 10:12:11;;;;;;;19.60;11.55;;;10.60;99.90;;;;;;5054020;28;20045;-46
2022/03/13 10:14:39;;;;;;;17.63;11.60;;;10.70;99.90;;;;;;5052808;28;20045;-49
2022/03/13 10:17:28;;;;;;;19.75;11.90;;;10.80;99.90;;;;;;5054115;28;20385;-48
2022/03/13 10:20:09;;;;;;;19.80;12.02;;;10.80;99.90;;;;;;5053976;28;20045;-47
2022/03/13 10:22:35;;;;;;;17.40;11.02;;;10.90;99.90;;;;;;5053761;28;20485;-46
2022/03/13 10:25:01;;;;;;;17.05;11.35;;;11.10;99.90;;;;;;5036025;28;20044;-46
2022/03/13 10:27:26;;;;;;;17.67;11.68;;;11.10;99.90;;;;;;5053733;28;20084;-50
2022/03/13 10:29:52;;;;;;;19.00;12.00;;;11.10;99.90;;;;;;5053817;28;20059;-48
2022/03/13 10:32:20;;;;;;;18.52;12.02;;;11.30;99.90;;;;;;5053691;28;20362;-47
2022/03/13 10:34:56;;;;;;;17.95;12.00;;;11.30;99.10;;;;;;5053711;28;20048;-46
2022/03/13 10:37:38;;;;;;;16.88;11.07;;;11.30;99.80;;;;;;5053975;28;20040;-48
2022/03/13 10:40:24;;;;;;;15.52;10.30;;;11.40;99.90;;;;;;5053597;28;20073;-47
2022/03/13 10:42:52;;;;;;;18.23;11.25;;;11.50;99.70;;;;;;5053276;28;20116;-46
2022/03/13 10:45:39;;;;;;;20.42;12.13;;;11.70;99.70;;;;;;5053687;28;20366;-47
2022/03/13 10:48:28;;;;;;;18.75;11.70;;;11.80;98.40;;;;;;5053739;28;20112;-47
2022/03/13 10:50:57;;;;;;;18.17;11.40;;;11.80;99.10;;;;;;5053297;28;20045;-47
2022/03/13 10:53:24;;;;;;;17.98;11.77;;;11.90;98.90;;;;;;5053645;28;20056;-48
2022/03/13 10:56:10;;;;;;;17.75;11.68;;;12.10;99.20;;;;;;5052074;28;20053;-47
2022/03/13 10:58:41;;;;;;;19.92;11.85;;;12.20;98.40;;;;;;5053257;28;20076;-46
2022/03/13 11:01:11;;;;;;;19.83;12.32;;;12.30;98.70;;;;;;5053588;28;20074;-46
2022/03/13 11:03:50;;;;;;;18.15;11.20;;;12.30;98.90;;;;;;5055423;28;20033;-49
2022/03/13 11:06:17;;;;;;;18.80;12.70;;;12.50;97.90;;;;;;5052510;28;20040;-47
2022/03/13 11:08:43;;;;;;;19.40;12.27;;;12.60;98.30;;;;;;5052167;28;20499;-46
2022/03/13 11:11:16;;;;;;;18.33;11.55;;;12.70;97.10;;;;;;5053082;28;20323;-49
2022/03/13 11:13:46;;;;;;;18.48;11.48;;;12.70;96.90;;;;;;5053029;28;20041;-46
2022/03/13 11:16:17;;;;;;;20.40;12.63;;;12.60;96.60;;;;;;5051590;28;20056;-47
2022/03/13 11:18:45;;;;;;;17.98;11.13;;;12.90;97.40;;;;;;5052689;28;20040;-47
2022/03/13 11:21:12;;;;;;;18.95;13.05;;;13.00;96.70;;;;;;5052625;28;20138;-47
2022/03/13 11:23:38;;;;;;;18.80;12.23;;;13.00;96.50;;;;;;5052652;28;20115;-46
2022/03/13 11:26:07;;;;;;;21.10;13.00;;;13.20;96.10;;;;;;5052462;28;20470;-48
2022/03/13 11:28:34;;;;;;;19.42;12.38;;;13.10;94.60;;;;;;5051195;28;20485;-47
2022/03/13 11:31:00;;;;;;;19.67;11.45;;;13.20;94.20;;;;;;5052196;28;20482;-47
2022/03/13 11:33:34;;;;;;;15.93;10.70;;;13.20;94.30;;;;;;5052179;28;20045;-47
2022/03/13 11:36:30;;;;;;;18.13;11.35;;;13.30;94.10;;;;;;5052456;28;20497;-46
2022/03/13 11:38:59;;;;;;;19.17;11.75;;;13.50;95.80;;;;;;5052482;28;20434;-46
2022/03/13 11:41:46;;;;;;;18.95;11.82;;;13.70;95.30;;;;;;5052202;28;20121;-47
2022/03/13 11:44:23;;;;;;;19.95;11.60;;;13.70;93.40;;;;;;5052492;28;20405;-47
2022/03/13 11:46:58;;;;;;;17.35;10.73;;;13.90;93.80;;;;;;5052760;28;20548;-47
2022/03/13 11:49:26;;;;;;;20.45;11.45;;;13.90;94.20;;;;;;5051849;28;20040;-47
2022/03/13 11:52:13;;;;;;;20.30;12.13;;;14.00;93.50;;;;;;5053171;28;20040;-47
2022/03/13 11:54:55;;;;;;;18.33;11.52;;;14.10;93.40;;;;;;5052802;28;20040;-49
2022/03/13 11:57:41;;;;;;;17.98;11.52;;;14.20;93.00;;;;;;5052933;28;20045;-47
2022/03/13 12:00:30;;;;;;;18.02;11.82;;;14.20;91.90;;;;;;5053035;28;20435;-48
2022/03/13 12:03:11;;;;;;;16.20;10.52;;;14.30;91.40;;;;;;5052690;28;20053;-47
2022/03/13 12:05:47;;;;;;;20.33;11.38;;;14.30;91.00;;;;;;5055213;28;20037;-47
2022/03/13 12:08:16;;;;;;;18.08;10.80;;;14.40;91.30;;;;;;5052917;28;20048;-47
2022/03/13 12:10:42;;;;;;;18.00;10.98;;;14.50;93.00;;;;;;5052640;28;20064;-47
2022/03/13 12:13:13;;;;;;;16.48;10.52;;;14.60;92.40;;;;;;5052151;28;20045;-46
2022/03/13 12:15:41;;;;;;;18.02;10.32;;;14.70;91.90;;;;;;5048711;28;20041;-49
2022/03/13 12:18:23;;;;;;;16.58;10.30;;;14.70;90.00;;;;;;5054681;28;20039;-47
2022/03/13 12:20:52;;;;;;;17.17;10.32;;;14.60;90.70;;;;;;5057259;28;20036;-47
2022/03/13 12:23:31;;;;;;;16.83;11.43;;;14.60;90.90;;;;;;5062232;28;20041;-50
2022/03/13 12:26:18;;;;;;;17.55;10.63;;;14.90;91.10;;;;;;5060690;28;20048;-51
2022/03/13 12:28:45;;;;;;;15.10;9.80;;;14.70;89.80;;;;;;5060600;28;20040;-48
2022/03/13 12:31:11;;;;;;;17.85;10.65;;;14.80;90.40;;;;;;5058311;28;20051;-50
2022/03/13 12:33:53;;;;;;;15.18;9.60;;;14.90;90.80;;;;;;5059596;28;20101;-51
2022/03/13 12:36:20;;;;;;;;;;;14.90;90.30;;;;;;5064704;28;20044;-47
2022/03/13 12:38:49;;;;;;;15.98;9.18;;;14.90;89.10;;;;;;5062838;28;19916;-48
2022/03/13 12:41:16;;;;;;;15.93;10.82;;;15.00;90.60;;;;;;5059529;28;20045;-51